Latest Weather Observations for Laverton

IDW60801

Issued at 10:33 pm WST Thursday 27 April 2017 (issued every 30 minutes, with the page automatically refreshed every 10 minutes)

About weather observations | Map of weather stations | Latest weather observations for WA | Other Formats
Station Details ID: 012305 Name: LAVERTON AERO Lat: -28.61 Lon: 122.42 Height: 464.3 m
Data from the previous 72 hours. | See also: Recent months at Laverton
Date/Time
WST
Temp
°C
App
Temp
°C
Dew
Point
°C
Rel
Hum
%
Delta-T
°C
Wind Press
QNH
hPa
Press
MSL
hPa
Rain since
9am
mm
Dir  Spd
km/h
Gust
km/h
Spd
kts
Gust
kts
27/10:30pm 15.7 12.3 5.9 52 4.8 ESE 13 15 7 8 1025.8 1023.9 0.0
27/10:00pm 16.0 13.0 6.2 52 4.9 ESE 11 13 6 7 1026.0 1024.1 0.0
27/09:30pm 16.5 13.1 6.1 50 5.2 ESE 13 17 7 9 1026.3 1024.4 0.0
27/09:00pm 17.0 13.6 5.9 48 5.5 E 13 17 7 9 1026.3 1024.4 0.0
27/08:30pm 17.0 13.3 6.2 49 5.4 ESE 15 20 8 11 1025.8 1023.9 0.0
27/08:00pm 17.0 14.1 6.5 50 5.3 ESE 11 17 6 9 1025.9 1024.0 0.0
27/07:30pm 16.8 13.9 6.6 51 5.1 ESE 11 15 6 8 1025.9 1024.0 0.0
27/07:00pm 16.7 13.5 6.8 52 5.0 SE 13 15 7 8 1025.7 1023.8 0.0
27/06:30pm 17.1 15.0 6.6 50 5.3 SE 7 9 4 5 1025.7 1023.8 0.0
27/06:00pm 17.9 14.8 5.5 44 6.1 SE 11 13 6 7 1025.4 1023.6 0.0
27/05:30pm 18.5 14.5 4.7 40 6.8 ESE 15 17 8 9 1025.1 1023.3 0.0
27/05:00pm 18.8 14.5 5.3 41 6.7 SE 17 22 9 12 1025.0 1023.2 0.0
27/04:30pm 19.0 14.7 5.1 40 6.9 SE 17 22 9 12 1025.0 1023.2 0.0
27/04:00pm 19.1 14.7 4.5 38 7.1 ESE 17 22 9 12 1025.0 1023.2 0.0
27/03:30pm 19.3 14.3 3.5 35 7.6 E 19 24 10 13 1025.0 1023.2 0.0
27/03:00pm 19.7 13.7 3.4 34 7.8 E 24 28 13 15 1025.0 1023.2 0.0
27/02:30pm 19.8 14.7 3.9 35 7.8 E 20 28 11 15 1025.0 1023.2 0.0
27/02:00pm 20.0 14.4 3.3 33 8.0 ENE 22 32 12 17 1025.1 1023.3 0.0
27/01:30pm 19.9 14.9 3.6 34 7.9 E 19 24 10 13 1025.2 1023.4 0.0
27/01:00pm 19.7 13.7 3.4 34 7.8 E 24 33 13 18 1025.7 1023.8 0.0
27/12:30pm 19.5 14.4 4.0 36 7.6 ENE 20 30 11 16 1026.2 1024.3 0.0
27/12:00pm 19.1 13.7 4.5 38 7.1 ESE 22 32 12 17 1026.6 1024.8 0.0
27/11:30am 18.7 13.7 4.8 40 6.9 ENE 20 30 11 16 1027.2 1025.4 0.0
27/11:00am 18.7 13.1 5.5 42 6.6 E 24 32 13 17 1027.7 1025.9 0.0
27/10:30am 17.3 11.7 5.6 46 5.8 E 24 33 13 18 1028.3 1026.4 0.0
27/10:00am 16.3 10.8 5.9 50 5.1 E 24 32 13 17 1028.4 1026.5 0.0
27/09:30am 16.0 10.6 6.2 52 4.9 E 24 30 13 16 1028.6 1026.8 0.0
27/09:00am 15.7 9.5 6.2 53 4.7 E 28 35 15 19 1028.5 1026.7 0.0
27/08:30am 13.9 8.4 6.0 59 3.9 E 24 32 13 17 1028.5 1026.7 0.0
27/08:00am 13.1 8.5 6.5 64 3.2 ESE 20 26 11 14 1028.4 1026.5 0.0
27/07:30am 12.2 8.2 6.5 68 2.8 ESE 17 24 9 13 1028.3 1026.4 0.0
27/07:00am 11.5 8.2 6.4 71 2.5 ESE 13 19 7 10 1028.1 1026.2 0.0
27/06:30am 11.3 6.9 6.4 72 2.4 ESE 19 24 10 13 1027.7 1025.9 0.0
27/06:00am 11.6 7.5 6.3 70 2.5 ESE 17 22 9 12 1027.3 1025.5 0.0
27/05:30am 12.0 8.3 6.5 69 2.7 ESE 15 19 8 10 1027.3 1025.5 0.0
27/05:00am 11.7 8.5 6.8 72 2.4 ESE 13 17 7 9 1027.1 1025.3 0.0
27/04:30am 11.5 9.1 7.0 74 2.2 ESE 9 11 5 6 1027.2 1025.4 0.0
27/04:00am 11.6 9.3 7.3 75 2.1 ESE 9 11 5 6 1027.1 1025.3 0.0
27/03:30am 11.9 10.0 7.4 74 2.2 ESE 7 9 4 5 1027.1 1025.3 0.0
27/03:00am 12.1 9.4 7.4 73 2.3 E 11 13 6 7 1027.0 1025.2 0.0
27/02:30am 12.5 10.2 7.4 71 2.5 E 9 11 5 6 1027.1 1025.3 0.0
27/02:00am 12.5 9.8 7.2 70 2.6 ESE 11 13 6 7 1027.2 1025.4 0.0
27/01:30am 12.7 9.6 7.2 69 2.7 ESE 13 17 7 9 1027.4 1025.6 0.0
27/01:00am 13.1 10.0 7.1 67 3.0 ESE 13 17 7 9 1027.2 1025.4 0.0
27/12:30am 13.3 10.2 7.3 67 3.0 E 13 17 7 9 1027.3 1025.5 0.0
27/12:00am 13.7 10.5 7.0 64 3.3 E 13 19 7 10 1027.1 1025.3 0.0
 
Date/Time
WST
Temp
°C
App
Temp
°C
Dew
Point
°C
Rel
Hum
%
Delta-T
°C
Wind Press
QNH
hPa
Press
MSL
hPa
Rain since
9am
mm
Dir  Spd
km/h
Gust
km/h
Spd
kts
Gust
kts
26/11:30pm 13.8 10.6 6.9 63 3.4 E 13 17 7 9 1027.3 1025.5 0.0
26/11:00pm 13.6 10.4 6.9 64 3.3 E 13 15 7 8 1027.4 1025.6 0.0
26/10:30pm 14.3 10.7 6.9 61 3.7 E 15 17 8 9 1027.7 1025.9 0.0
26/10:00pm 15.0 11.4 6.8 58 4.1 E 15 20 8 11 1028.1 1026.2 0.0
26/09:30pm 15.6 11.7 6.9 56 4.4 ESE 17 20 9 11 1027.9 1026.0 0.0
26/09:00pm 16.0 11.6 6.7 54 4.6 ESE 19 24 10 13 1027.7 1025.9 0.0
26/08:30pm 16.4 11.9 6.8 53 4.9 ESE 20 28 11 15 1027.3 1025.5 0.0
26/08:00pm 16.7 12.8 7.1 53 4.9 ESE 17 22 9 12 1027.2 1025.4 0.0
26/07:30pm 17.1 14.3 6.9 51 5.2 E 11 15 6 8 1026.9 1025.1 0.0
26/07:00pm 17.6 14.4 6.8 49 5.5 E 13 17 7 9 1026.7 1024.9 0.0
26/06:30pm 17.9 14.7 6.7 48 5.7 ESE 13 17 7 9 1026.3 1024.4 0.0
26/06:00pm 18.6 14.9 6.4 45 6.2 ESE 15 19 8 10 1025.9 1024.0 0.0
26/05:30pm 19.3 14.6 6.1 42 6.7 SE 20 28 11 15 1025.4 1023.6 0.0
26/05:00pm 19.8 14.0 6.2 41 6.9 ESE 26 33 14 18 1025.0 1023.2 0.0
26/04:30pm 20.3 15.0 6.6 41 7.1 SE 24 33 13 18 1024.8 1023.0 0.0
26/04:00pm 21.0 15.8 7.3 41 7.2 SE 24 35 13 19 1024.5 1022.6 0.0
26/03:30pm 21.8 17.4 6.5 37 8.0 ESE 19 30 10 16 1024.7 1022.9 0.0
26/03:00pm 21.6 17.5 6.3 37 7.9 ENE 17 24 9 13 1024.7 1022.9 0.0
26/02:30pm 21.6 17.1 6.3 37 7.9 E 19 26 10 14 1024.7 1022.9 0.0
26/02:00pm 21.3 17.2 6.4 38 7.7 E 17 28 9 15 1024.9 1023.1 0.0
26/01:30pm 21.7 17.6 6.4 37 7.9 ESE 17 30 9 16 1025.1 1023.3 0.0
26/01:00pm 21.3 17.7 6.8 39 7.5 ESE 15 26 8 14 1025.7 1023.8 0.0
26/12:30pm 20.6 16.0 6.5 40 7.3 ESE 20 28 11 15 1025.9 1024.0 0.0
26/12:00pm 20.2 15.9 6.9 42 6.9 ESE 19 24 10 13 1026.7 1024.9 0.0
26/11:30am 19.7 16.3 9.0 50 5.8 E 17 24 9 13 1027.3 1025.5 0.0
26/11:00am 19.7 15.4 9.3 51 5.6 E 22 28 12 15 1027.4 1025.6 0.0
26/10:30am 19.5 15.3 9.7 53 5.3 E 22 30 12 16 1028.0 1026.1 0.0
26/10:00am 18.7 14.2 10.0 57 4.7 ENE 24 32 13 17 1028.3 1026.4 0.0
26/09:30am 18.1 13.5 9.5 57 4.6 ENE 24 32 13 17 1028.4 1026.5 0.0
26/09:00am 16.9 12.3 9.8 63 3.8 ENE 24 30 13 16 1028.5 1026.7 0.0
26/08:30am 16.2 11.6 9.8 66 3.4 ENE 24 30 13 16 1028.4 1026.5 0.0
26/08:00am 14.8 10.1 9.4 70 2.8 E 24 32 13 17 1028.1 1026.2 0.0
26/07:30am 13.6 9.3 9.5 76 2.1 E 22 28 12 15 1027.7 1025.9 0.0
26/07:00am 12.3 8.9 9.0 80 1.7 E 17 22 9 12 1027.5 1025.7 0.0
26/06:30am 11.4 7.4 8.4 82 1.5 E 19 24 10 13 1027.2 1025.4 0.0
26/06:00am 11.6 7.5 8.5 81 1.6 E 20 24 11 13 1027.2 1025.4 0.0
26/05:30am 11.8 7.9 8.5 80 1.7 ENE 19 24 10 13 1026.9 1025.1 0.0
26/05:00am 11.8 8.2 8.3 79 1.8 E 17 20 9 11 1026.8 1025.0 0.0
26/04:30am 12.1 8.1 8.2 77 2.0 E 19 22 10 12 1026.6 1024.8 0.0
26/04:00am 12.4 8.7 7.9 74 2.2 E 17 20 9 11 1026.5 1024.7 0.0
26/03:30am 12.9 9.2 8.0 72 2.5 E 17 20 9 11 1026.4 1024.5 0.0
26/03:00am 13.3 9.5 7.7 69 2.8 E 17 20 9 11 1026.2 1024.3 0.0
26/02:30am 13.3 9.5 7.5 68 2.9 E 17 20 9 11 1026.3 1024.4 0.0
26/02:00am 13.7 9.4 7.2 65 3.2 E 19 22 10 12 1026.2 1024.3 0.0
26/01:30am 13.9 9.6 7.2 64 3.4 E 19 24 10 13 1026.3 1024.4 0.0
26/01:00am 14.2 10.3 7.0 62 3.6 E 17 20 9 11 1026.0 1024.1 0.0
26/12:30am 13.0 10.6 7.2 68 2.9 E 9 13 5 7 1025.8 1023.9 0.0
26/12:00am 13.7 10.6 7.2 65 3.2 ESE 13 15 7 8 1025.8 1023.9 0.0
 
Date/Time
WST
Temp
°C
App
Temp
°C
Dew
Point
°C
Rel
Hum
%
Delta-T
°C
Wind Press
QNH
hPa
Press
MSL
hPa
Rain since
9am
mm
Dir  Spd
km/h
Gust
km/h
Spd
kts
Gust
kts
25/11:30pm 13.4 10.4 7.6 68 2.9 ENE 13 13 7 7 1025.4 1023.6 0.0
25/11:00pm 13.5 10.9 7.9 69 2.8 ENE 11 15 6 8 1025.2 1023.4 0.0
25/10:30pm 14.0 11.5 8.2 68 3.0 E 11 13 6 7 1025.4 1023.6 0.0
25/10:00pm 14.6 11.6 7.9 64 3.4 ENE 13 13 7 7 1025.5 1023.7 0.0
25/09:30pm 15.0 12.5 8.3 64 3.5 E 11 13 6 7 1025.4 1023.6 0.0
25/09:00pm 14.8 12.7 8.3 65 3.3 ENE 9 11 5 6 1025.7 1023.8 0.0
25/08:30pm 15.7 13.7 8.7 63 3.7 E 9 9 5 5 1025.4 1023.6 0.0
25/08:00pm 16.6 14.1 8.1 57 4.4 ESE 11 13 6 7 1025.2 1023.4 0.0
25/07:30pm 16.9 15.3 8.6 58 4.4 E 7 9 4 5 1025.0 1023.2 0.0
25/07:00pm 17.5 15.7 7.8 53 5.0 E 7 9 4 5 1024.6 1022.8 0.0
25/06:30pm 18.8 16.4 6.9 46 6.1 ESE 9 11 5 6 1024.2 1022.3 0.0
25/06:00pm 19.7 16.4 6.4 42 6.8 SE 13 15 7 8 1023.9 1022.0 0.0
25/05:30pm 20.3 17.7 5.9 39 7.3 SE 9 13 5 7 1023.8 1021.9 0.0
25/05:00pm 21.2 17.2 5.1 35 8.1 SE 15 20 8 11 1023.2 1021.4 0.0
25/04:30pm 22.1 17.8 5.1 33 8.6 SE 17 22 9 12 1022.9 1021.1 0.0
25/04:00pm 22.5 18.0 5.9 34 8.5 SE 19 24 10 13 1022.9 1021.1 0.0
25/03:30pm 22.8 18.5 7.0 36 8.3 SE 19 30 10 16 1022.4 1020.5 0.0
25/03:00pm 22.6 18.5 6.4 35 8.4 SE 17 22 9 12 1022.3 1020.4 0.0
25/02:30pm 22.6 18.2 6.4 35 8.4 SE 19 28 10 15 1022.2 1020.3 0.0
25/02:00pm 23.2 19.5 6.5 34 8.7 SSE 15 28 8 15 1022.3 1020.4 0.0
25/01:30pm 22.7 18.7 6.5 35 8.5 SSE 17 28 9 15 1022.5 1020.6 0.0
25/01:00pm 22.4 18.2 7.4 38 7.9 SE 19 24 10 13 1022.6 1020.7 0.0
25/12:30pm 21.7 18.1 8.2 42 7.2 SE 17 26 9 14 1023.0 1021.2 0.0
25/12:00pm 21.5 18.3 8.4 43 7.0 SE 15 22 8 12 1023.6 1021.7 0.0
25/11:30am 21.0 18.1 9.6 48 6.2 ESE 15 22 8 12 1023.9 1022.0 0.0
25/11:00am 20.2 17.7 9.7 51 5.7 SE 13 20 7 11 1024.5 1022.6 0.0
25/10:30am 20.4 18.6 10.8 54 5.4 ESE 11 17 6 9 1024.6 1022.8 0.0
25/10:00am 19.3 17.0 10.3 56 4.9 E 13 19 7 10 1024.8 1023.0 0.0
25/09:30am 19.2 16.0 11.3 60 4.4 E 19 24 10 13 1024.6 1022.8 0.0
25/09:00am 18.2 14.4 11.0 63 4.0 ENE 22 26 12 14 1024.6 1022.8 0.0
25/08:30am 17.4 13.6 11.2 67 3.4 ENE 22 30 12 16 1024.5 1022.6 0.0
25/08:00am 15.9 11.3 10.9 72 2.7 E 26 35 14 19 1024.4 1022.5 0.0
25/07:30am 14.7 11.1 10.5 76 2.3 ENE 20 28 11 15 1024.0 1022.1 0.0
25/07:00am 13.4 10.5 9.8 79 1.9 E 15 22 8 12 1023.7 1021.8 0.0
25/06:30am 12.4 10.4 10.0 85 1.3 SE 11 13 6 7 1023.5 1021.6 0.0
25/06:00am 12.8 10.7 9.6 81 1.7 SE 11 13 6 7 1023.1 1021.3 0.0
25/05:30am 13.6 10.4 9.8 78 2.0 E 17 20 9 11 1022.9 1021.1 0.0
25/05:00am 13.5 10.7 10.1 80 1.8 ESE 15 19 8 10 1022.5 1020.6 0.0
25/04:30am 13.2 10.8 10.2 82 1.6 SE 13 17 7 9 1022.1 1020.2 0.0
25/04:00am 13.6 10.4 10.0 79 1.9 ESE 17 20 9 11 1021.7 1019.8 0.0
25/03:30am 13.6 10.5 10.2 80 1.8 ESE 17 22 9 12 1021.4 1019.5 0.0
25/03:00am 13.6 10.0 10.0 79 1.9 ESE 19 22 10 12 1021.1 1019.2 0.0
25/02:30am 13.8 10.6 9.8 77 2.1 ESE 17 22 9 12 1021.1 1019.2 0.0
25/02:00am 14.1 10.8 9.7 75 2.3 E 17 22 9 12 1021.1 1019.2 0.0
25/01:30am 14.5 10.6 9.5 72 2.6 E 20 26 11 14 1020.8 1019.0 0.0
25/01:00am 14.9 11.2 9.5 70 2.8 ESE 19 24 10 13 1020.7 1018.8 0.0
25/12:30am 14.8 11.5 9.4 70 2.8 ESE 17 19 9 10 1020.8 1019.0 0.0
25/12:00am 15.1 12.2 9.7 70 2.9 E 15 19 8 10 1020.9 1019.1 0.0
 
Date/Time
WST
Temp
°C
App
Temp
°C
Dew
Point
°C
Rel
Hum
%
Delta-T
°C
Wind Press
QNH
hPa
Press
MSL
hPa
Rain since
9am
mm
Dir  Spd
km/h
Gust
km/h
Spd
kts
Gust
kts
24/11:30pm 15.6 12.3 9.5 67 3.2 ESE 17 20 9 11 1020.4 1018.5 0.0
24/11:00pm 16.1 12.4 9.5 65 3.5 ESE 19 24 10 13 1020.6 1018.7 0.0

Other Formats:

Comma delimited format used in spreadsheet applications
http://www.bom.gov.au/fwo/IDW60801/IDW60801.94449.axf

JavaScript Object Notation format (JSON) in row-major order
http://www.bom.gov.au/fwo/IDW60801/IDW60801.94449.json